Time;durP1;ratioP1;P1;durP2;ratioP2;P2;SDS_P1;SDS_P2;PMS_P1;PMS_P2;Temp;Humidity;BMP_temperature;BMP_pressure;BME280_temperature;BME280_humidity;BME280_pressure;Samples;Min_cycle;Max_cycle;Signal;HPM_P1;HPM_P2
2022/12/17 13:06:13;;;;;;;7.22;6.53;;;15.10;59.70;;;;;;4933885;28;20062;-43
2022/12/17 13:08:39;;;;;;;8.77;7.72;;;15.10;59.70;;;;;;4923426;28;20054;-41
2022/12/17 13:11:28;;;;;;;11.82;6.90;;;15.10;59.60;;;;;;4929909;28;20063;-41
2022/12/17 13:13:57;;;;;;;10.57;7.10;;;15.20;59.50;;;;;;4943862;28;20110;-41
2022/12/17 13:16:43;;;;;;;7.78;6.85;;;15.20;59.50;;;;;;4975715;28;20047;-42
2022/12/17 13:19:30;;;;;;;12.25;6.63;;;15.20;59.30;;;;;;4981288;28;20600;-40
2022/12/17 13:21:56;;;;;;;8.48;6.55;;;15.20;59.40;;;;;;4985395;28;20046;-45
2022/12/17 13:24:25;;;;;;;6.55;5.95;;;15.30;59.50;;;;;;4986459;28;20050;-40
2022/12/17 13:26:51;;;;;;;6.50;6.00;;;15.20;59.50;;;;;;4986197;28;20101;-41
2022/12/17 13:29:44;;;;;;;6.03;5.57;;;15.30;59.40;;;;;;4982143;28;20050;-41
2022/12/17 13:32:41;;;;;;;9.20;6.13;;;15.30;59.30;;;;;;4970571;28;20145;-41
2022/12/17 13:35:15;;;;;;;6.28;5.47;;;15.30;59.30;;;;;;4986348;28;20047;-39
2022/12/17 13:38:00;;;;;;;8.63;5.97;;;15.30;59.50;;;;;;4978959;28;20046;-40
2022/12/17 13:40:49;;;;;;;5.75;4.90;;;15.30;59.60;;;;;;4975344;28;20539;-40
2022/12/17 13:43:19;;;;;;;6.72;5.47;;;15.30;59.70;;;;;;4977622;28;20121;-40
2022/12/17 13:45:45;;;;;;;9.02;5.47;;;15.30;59.90;;;;;;4976674;28;20085;-40
2022/12/17 13:48:24;;;;;;;5.80;5.20;;;15.40;60.00;;;;;;4973760;28;20500;-40
2022/12/17 13:50:58;;;;;;;6.18;5.57;;;15.50;59.90;;;;;;4974864;28;20050;-43
2022/12/17 13:53:24;;;;;;;5.63;5.13;;;15.60;59.80;;;;;;4976832;28;20100;-42
2022/12/17 13:55:55;;;;;;;6.35;5.85;;;15.50;59.90;;;;;;4969550;28;20054;-40
2022/12/17 13:58:23;;;;;;;6.68;6.00;;;15.50;60.30;;;;;;4979541;28;20121;-40
2022/12/17 14:00:48;;;;;;;6.63;5.70;;;15.40;60.50;;;;;;4974433;28;20059;-41
2022/12/17 14:03:18;;;;;;;6.35;5.75;;;15.40;60.70;;;;;;4978202;28;20678;-40
2022/12/17 14:05:44;;;;;;;7.13;6.43;;;15.30;60.80;;;;;;4982715;28;20042;-36
2022/12/17 14:08:16;;;;;;;7.55;6.03;;;15.30;60.80;;;;;;4976115;28;20053;-40
2022/12/17 14:10:51;;;;;;;6.07;5.47;;;15.30;61.00;;;;;;5007267;28;20034;-39
2022/12/17 14:13:17;;;;;;;7.43;5.70;;;15.30;60.90;;;;;;4978905;28;20108;-41
2022/12/17 14:15:47;;;;;;;6.55;5.95;;;15.30;60.90;;;;;;4982399;28;21684;-42
2022/12/17 14:18:14;;;;;;;6.70;6.20;;;15.30;61.00;;;;;;4978812;28;20050;-40
2022/12/17 14:20:40;;;;;;;6.60;6.00;;;15.30;61.00;;;;;;4979174;28;20538;-32
2022/12/17 14:23:10;;;;;;;7.35;6.07;;;15.40;61.10;;;;;;4981359;28;20046;-42
2022/12/17 14:25:40;;;;;;;7.30;5.38;;;15.30;61.00;;;;;;4994143;28;20046;-42
2022/12/17 14:28:20;;;;;;;9.73;5.90;;;15.30;61.10;;;;;;5005055;28;20050;-41
2022/12/17 14:30:46;;;;;;;5.65;5.05;;;15.30;60.90;;;;;;4977686;28;20046;-40
2022/12/17 14:33:28;;;;;;;5.60;5.10;;;15.30;60.90;;;;;;5005288;28;20105;-40
2022/12/17 14:35:54;;;;;;;5.87;5.40;;;15.30;60.90;;;;;;4631805;28;10000490;-42
2022/12/17 14:38:20;;;;;;;7.85;5.80;;;15.40;60.80;;;;;;4997991;28;21474;-45
2022/12/17 14:40:46;;;;;;;5.88;5.47;;;15.40;60.70;;;;;;4628336;28;10000585;-40
2022/12/17 14:43:12;;;;;;;6.22;5.10;;;15.40;60.70;;;;;;4978148;28;20343;-39
2022/12/17 14:46:19;;;;;;;5.82;5.32;;;15.40;60.70;;;;;;5009624;28;20046;-39
2022/12/17 14:48:59;;;;;;;5.50;5.07;;;15.40;60.70;;;;;;4977240;28;20046;-41
2022/12/17 14:51:31;;;;;;;6.55;5.97;;;15.40;60.50;;;;;;4995085;28;20137;-39
2022/12/17 14:54:12;;;;;;;9.80;7.80;;;15.40;60.30;;;;;;4979743;28;20046;-43
2022/12/17 14:56:39;;;;;;;18.63;13.45;;;15.40;60.20;;;;;;4975639;28;20057;-41
2022/12/17 14:59:04;;;;;;;29.05;16.92;;;15.40;60.20;;;;;;4975108;28;20042;-42
2022/12/17 15:01:30;;;;;;;26.98;18.77;;;15.40;60.60;;;;;;4977989;28;20061;-40
2022/12/17 15:03:56;;;;;;;31.00;20.10;;;15.40;60.60;;;;;;4977276;28;20038;-40
2022/12/17 15:06:21;;;;;;;27.15;18.60;;;15.40;60.40;;;;;;4979774;28;20054;-39
2022/12/17 15:08:47;;;;;;;28.85;18.63;;;15.40;60.30;;;;;;4972908;28;20050;-41
2022/12/17 15:11:15;;;;;;;28.48;18.27;;;15.30;60.40;;;;;;4974147;28;20058;-41
2022/12/17 15:13:41;;;;;;;31.70;20.40;;;15.40;60.40;;;;;;4975954;28;20054;-40
2022/12/17 15:16:06;;;;;;;27.23;18.23;;;15.40;60.30;;;;;;4971026;28;20402;-40
2022/12/17 15:18:32;;;;;;;27.65;19.20;;;15.40;60.30;;;;;;4976287;28;20050;-40
2022/12/17 15:20:58;;;;;;;32.95;18.90;;;15.40;60.40;;;;;;4972605;28;21261;-40
2022/12/17 15:23:24;;;;;;;27.08;18.50;;;15.40;60.40;;;;;;5003931;28;20399;-38
2022/12/17 15:25:50;;;;;;;27.80;18.75;;;15.40;60.30;;;;;;4999794;28;20200;-40
2022/12/17 15:28:16;;;;;;;29.10;18.00;;;15.40;60.40;;;;;;4970930;28;20114;-42
2022/12/17 15:30:42;;;;;;;27.33;18.10;;;15.30;60.50;;;;;;4978775;28;20531;-40
2022/12/17 15:33:08;;;;;;;24.63;16.25;;;15.30;60.20;;;;;;4978004;28;20125;-40
2022/12/17 15:35:34;;;;;;;22.85;16.30;;;15.40;60.20;;;;;;4976305;28;20048;-42
2022/12/17 15:38:00;;;;;;;21.55;15.55;;;15.30;61.10;;;;;;4977490;28;20046;-42
2022/12/17 15:40:25;;;;;;;24.45;15.93;;;15.40;60.30;;;;;;4977698;28;20038;-41
2022/12/17 15:45:42;;;;;;;17.83;13.82;;;15.40;60.30;;;;;;4975621;28;20053;-41
2022/12/17 15:48:09;;;;;;;27.40;15.85;;;15.40;60.30;;;;;;4972825;28;20061;-47
2022/12/17 15:50:34;;;;;;;23.88;15.13;;;15.40;60.40;;;;;;4973599;28;20045;-39
2022/12/17 15:53:00;;;;;;;22.00;14.95;;;15.40;60.30;;;;;;4976135;28;20082;-42
2022/12/17 15:55:26;;;;;;;19.10;14.95;;;15.40;60.30;;;;;;4973451;28;20471;-40
2022/12/17 15:57:51;;;;;;;20.20;13.85;;;15.40;60.30;;;;;;4979759;28;20076;-40
2022/12/17 16:00:17;;;;;;;16.85;13.43;;;15.40;60.20;;;;;;4976802;28;20038;-40
2022/12/17 16:02:42;;;;;;;19.92;14.05;;;15.40;60.40;;;;;;4972589;28;20043;-42
2022/12/17 16:05:08;;;;;;;20.35;13.95;;;15.40;60.50;;;;;;4976286;28;20248;-40
2022/12/17 16:07:35;;;;;;;18.25;14.07;;;15.40;60.70;;;;;;4979505;28;20074;-40
2022/12/17 16:10:01;;;;;;;17.38;13.45;;;15.40;60.60;;;;;;4975169;28;20488;-42
2022/12/17 16:12:27;;;;;;;16.88;13.60;;;15.40;60.50;;;;;;4972735;28;20058;-42
2022/12/17 16:14:52;;;;;;;16.33;12.48;;;15.40;60.50;;;;;;4971385;28;20425;-39
2022/12/17 16:17:18;;;;;;;17.52;12.38;;;15.40;60.70;;;;;;4979198;28;20464;-40
2022/12/17 16:19:43;;;;;;;17.52;13.02;;;15.40;60.70;;;;;;4977780;28;20046;-41
2022/12/17 16:22:09;;;;;;;16.25;12.70;;;15.40;60.70;;;;;;4971432;28;20070;-39
2022/12/17 16:24:34;;;;;;;15.38;12.23;;;15.40;60.70;;;;;;4978559;28;20051;-40
2022/12/17 16:27:00;;;;;;;14.15;10.85;;;15.40;60.70;;;;;;4967836;28;20052;-40
2022/12/17 16:29:26;;;;;;;15.93;11.57;;;15.50;60.50;;;;;;4977658;28;20591;-40
2022/12/17 16:31:51;;;;;;;14.80;11.98;;;15.50;60.70;;;;;;4973654;28;20117;-40
2022/12/17 16:34:17;;;;;;;13.82;11.27;;;15.50;60.40;;;;;;4976228;28;20062;-39
2022/12/17 16:36:42;;;;;;;13.73;10.85;;;15.50;60.40;;;;;;4974246;28;20442;-42
2022/12/17 16:39:15;;;;;;;12.68;10.52;;;15.60;60.30;;;;;;4974308;28;20054;-40
2022/12/17 16:41:41;;;;;;;14.02;11.73;;;15.60;60.20;;;;;;4974941;28;20074;-38
2022/12/17 16:44:06;;;;;;;15.07;10.95;;;15.60;60.20;;;;;;4978120;28;20219;-42
2022/12/17 16:46:37;;;;;;;13.02;11.27;;;15.60;60.30;;;;;;4972365;28;20515;-40
2022/12/17 16:49:19;;;;;;;14.93;10.20;;;15.60;60.30;;;;;;4969717;28;20051;-41
2022/12/17 16:51:46;;;;;;;12.50;10.70;;;15.60;60.10;;;;;;4974828;28;20053;-40
2022/12/17 16:54:16;;;;;;;11.40;10.13;;;15.60;60.10;;;;;;4971745;28;20141;-41
2022/12/17 16:56:42;;;;;;;13.18;10.25;;;15.60;60.20;;;;;;4969182;28;20423;-40
2022/12/17 16:59:08;;;;;;;11.40;9.85;;;15.60;60.20;;;;;;4961358;28;20558;-41
2022/12/17 17:01:34;;;;;;;10.20;8.70;;;15.60;60.40;;;;;;4623198;28;10000360;-40
2022/12/17 17:04:00;;;;;;;13.02;10.05;;;15.60;60.40;;;;;;4972920;28;20055;-40
2022/12/17 17:06:26;;;;;;;12.05;8.88;;;15.60;60.30;;;;;;4980454;28;20053;-40
2022/12/17 17:08:51;;;;;;;14.63;9.38;;;15.60;60.40;;;;;;4976180;28;20042;-40
2022/12/17 17:11:20;;;;;;;12.60;9.55;;;15.70;60.10;;;;;;4974902;28;20062;-41
2022/12/17 17:13:46;;;;;;;12.93;9.05;;;15.60;60.30;;;;;;4981500;28;20073;-40
2022/12/17 17:16:11;;;;;;;13.30;9.25;;;15.60;60.40;;;;;;4971613;28;20142;-40
2022/12/17 17:18:37;;;;;;;12.40;9.02;;;15.60;60.30;;;;;;4972250;28;20041;-43
2022/12/17 17:21:12;;;;;;;11.32;9.70;;;15.60;60.50;;;;;;4978503;28;20519;-42
2022/12/17 17:23:38;;;;;;;12.77;11.32;;;15.60;60.30;;;;;;4971120;28;20042;-40
2022/12/17 17:26:04;;;;;;;12.90;10.38;;;15.60;60.30;;;;;;4979262;28;20042;-42
2022/12/17 17:28:30;;;;;;;14.02;11.52;;;15.60;60.40;;;;;;4975717;28;20524;-40
2022/12/17 17:31:02;;;;;;;14.35;11.50;;;15.60;60.40;;;;;;4979200;28;20562;-37
2022/12/17 17:33:33;;;;;;;15.27;11.98;;;15.60;60.50;;;;;;4974887;28;20473;-40
2022/12/17 17:36:05;;;;;;;11.75;10.55;;;15.70;60.40;;;;;;4972280;28;20064;-40
2022/12/17 17:38:33;;;;;;;12.10;10.07;;;15.60;60.50;;;;;;4979466;28;20046;-39
2022/12/17 17:40:58;;;;;;;11.20;10.10;;;15.60;60.30;;;;;;4981489;28;20121;-41
2022/12/17 17:43:24;;;;;;;11.70;10.43;;;15.60;60.50;;;;;;4979111;28;20212;-35
2022/12/17 17:45:49;;;;;;;12.20;10.15;;;15.60;60.30;;;;;;4979939;28;20128;-40
2022/12/17 17:48:15;;;;;;;11.57;10.38;;;15.70;60.50;;;;;;4977661;28;20250;-40
2022/12/17 17:50:41;;;;;;;12.07;9.73;;;15.70;60.40;;;;;;4974410;28;20216;-40
2022/12/17 17:53:07;;;;;;;12.10;10.25;;;15.80;60.80;;;;;;4973577;28;20065;-42
2022/12/17 17:55:36;;;;;;;10.98;9.88;;;15.80;60.50;;;;;;4978331;28;20545;-39
2022/12/17 17:58:01;;;;;;;10.80;9.40;;;15.90;60.40;;;;;;4978627;28;20120;-41
2022/12/17 18:00:27;;;;;;;14.38;10.13;;;15.90;60.70;;;;;;4979769;28;20046;-42
2022/12/17 18:02:52;;;;;;;11.25;9.70;;;15.90;60.20;;;;;;4975051;28;20523;-39
2022/12/17 18:05:18;;;;;;;15.20;12.43;;;15.90;60.10;;;;;;4976996;28;20053;-43
2022/12/17 18:07:44;;;;;;;19.25;14.40;;;15.90;60.60;;;;;;4978366;28;20419;-40
2022/12/17 18:10:09;;;;;;;20.77;15.18;;;16.00;60.30;;;;;;4975780;28;20772;-43
2022/12/17 18:15:19;;;;;;;26.20;16.88;;;16.00;60.50;;;;;;4978587;28;20141;-40
2022/12/17 18:17:48;;;;;;;25.63;17.10;;;16.00;60.90;;;;;;4973683;28;20348;-39
2022/12/17 18:20:13;;;;;;;24.45;17.10;;;16.00;60.90;;;;;;4974793;28;20103;-40
2022/12/17 18:22:39;;;;;;;23.85;16.13;;;16.00;60.80;;;;;;4978341;28;20146;-41
2022/12/17 18:25:05;;;;;;;25.42;16.95;;;16.00;60.50;;;;;;4972334;28;20141;-40
2022/12/17 18:27:31;;;;;;;25.73;17.50;;;16.00;60.70;;;;;;4974434;28;20116;-41
2022/12/17 18:29:56;;;;;;;24.45;16.50;;;16.10;61.30;;;;;;4973621;28;20135;-40
2022/12/17 18:32:22;;;;;;;25.63;17.63;;;16.10;60.80;;;;;;4976255;28;20050;-41
2022/12/17 18:34:47;;;;;;;22.55;16.77;;;16.10;60.70;;;;;;4972327;28;20547;-43
2022/12/17 18:37:13;;;;;;;23.55;14.95;;;16.10;61.90;;;;;;4975193;28;20054;-41
2022/12/17 18:39:38;;;;;;;20.95;15.68;;;16.10;61.30;;;;;;4977742;28;20054;-40
2022/12/17 18:44:48;;;;;;;;;;;16.20;60.90;;;;;;4972554;28;20488;-41
2022/12/17 18:47:14;;;;;;;18.85;14.07;;;16.20;61.00;;;;;;4977472;28;20383;-43
2022/12/17 18:49:39;;;;;;;23.77;15.38;;;16.20;61.70;;;;;;4974878;28;20086;-41
2022/12/17 18:52:05;;;;;;;21.73;16.10;;;16.20;61.30;;;;;;4978674;28;20050;-40
2022/12/17 18:54:32;;;;;;;19.60;14.27;;;16.20;61.30;;;;;;4975317;28;20439;-40
2022/12/17 18:56:58;;;;;;;20.98;14.93;;;16.30;61.00;;;;;;4979263;28;20053;-42
2022/12/17 18:59:25;;;;;;;19.85;14.70;;;16.30;61.30;;;;;;4972649;28;20046;-42
2022/12/17 19:01:51;;;;;;;21.27;14.98;;;16.30;60.90;;;;;;4977316;28;20042;-42
2022/12/17 19:04:17;;;;;;;18.80;14.52;;;16.30;60.90;;;;;;4974728;28;20055;-41
2022/12/17 19:06:43;;;;;;;19.80;14.35;;;16.30;60.70;;;;;;4975948;28;20562;-41
2022/12/17 19:09:23;;;;;;;18.73;13.95;;;16.20;61.50;;;;;;4981973;28;20042;-40
2022/12/17 19:11:49;;;;;;;18.13;14.10;;;16.30;60.80;;;;;;4978868;28;20042;-39
2022/12/17 19:14:16;;;;;;;17.67;13.57;;;16.30;60.50;;;;;;4978073;28;20053;-42
2022/12/17 19:16:42;;;;;;;17.55;13.02;;;16.30;61.00;;;;;;4973201;28;20050;-45
2022/12/17 19:19:10;;;;;;;15.98;12.52;;;16.30;60.50;;;;;;4976956;28;20499;-40
2022/12/17 19:21:35;;;;;;;17.33;13.48;;;16.20;60.90;;;;;;4980799;28;20043;-41
2022/12/17 19:24:05;;;;;;;17.30;13.98;;;16.30;60.20;;;;;;4976903;28;20584;-41
2022/12/17 19:26:31;;;;;;;15.88;12.93;;;16.40;60.10;;;;;;4980226;28;20089;-40
2022/12/17 19:28:57;;;;;;;18.20;13.45;;;16.30;60.50;;;;;;4980888;28;20038;-27
2022/12/17 19:31:24;;;;;;;16.80;13.20;;;16.20;60.40;;;;;;4976695;28;20531;-40
2022/12/17 19:33:54;;;;;;;16.60;12.85;;;16.30;60.30;;;;;;4975569;28;20038;-40
2022/12/17 19:36:19;;;;;;;15.95;11.50;;;16.30;60.30;;;;;;4977165;28;20069;-41
2022/12/17 19:38:45;;;;;;;14.65;12.77;;;16.30;60.30;;;;;;4978385;28;20042;-41
2022/12/17 19:41:15;;;;;;;14.07;11.40;;;16.30;60.90;;;;;;4976154;28;20593;-39
2022/12/17 19:43:41;;;;;;;14.07;11.40;;;16.20;60.50;;;;;;4978138;28;20426;-40
2022/12/17 19:46:09;;;;;;;15.38;11.55;;;16.30;60.40;;;;;;4970253;28;20050;-40
2022/12/17 19:48:35;;;;;;;13.27;11.55;;;16.20;60.40;;;;;;4967669;28;20057;-41
2022/12/17 19:51:01;;;;;;;14.10;10.77;;;16.10;60.50;;;;;;4624268;28;10000468;-40
2022/12/17 19:53:27;;;;;;;12.15;10.63;;;16.20;60.50;;;;;;4973642;28;20049;-47
2022/12/17 19:55:54;;;;;;;13.10;10.45;;;16.20;60.20;;;;;;4974321;28;20047;-42
2022/12/17 19:58:20;;;;;;;13.27;10.20;;;16.20;60.20;;;;;;4973897;28;20073;-40
2022/12/17 20:00:46;;;;;;;12.38;10.70;;;16.20;60.20;;;;;;4972985;28;20080;-43
2022/12/17 20:03:12;;;;;;;13.57;10.98;;;16.20;60.30;;;;;;4973471;28;20042;-41
2022/12/17 20:05:37;;;;;;;14.27;10.30;;;16.20;60.40;;;;;;4973681;28;20050;-42
2022/12/17 20:08:03;;;;;;;12.02;10.10;;;16.20;60.50;;;;;;4974880;28;20149;-40
2022/12/17 20:10:31;;;;;;;11.95;10.60;;;16.30;60.50;;;;;;4971435;28;20500;-40
2022/12/17 20:12:56;;;;;;;15.18;10.77;;;16.20;60.40;;;;;;4979001;28;20042;-40
2022/12/17 20:15:22;;;;;;;12.20;10.52;;;16.20;60.50;;;;;;4969410;28;20129;-42
2022/12/17 20:17:47;;;;;;;13.75;11.35;;;16.30;60.50;;;;;;4973245;28;20035;-43
2022/12/17 20:20:13;;;;;;;13.10;9.88;;;16.20;60.50;;;;;;4972179;28;20503;-42
2022/12/17 20:22:38;;;;;;;13.45;8.85;;;16.20;60.70;;;;;;4979182;28;20050;-43
2022/12/17 20:25:08;;;;;;;10.27;9.15;;;16.20;60.70;;;;;;4974728;28;20052;-41
2022/12/17 20:27:33;;;;;;;11.80;9.65;;;16.30;60.60;;;;;;4974294;28;20053;-41
2022/12/17 20:29:59;;;;;;;12.55;9.25;;;16.30;60.50;;;;;;4975145;28;20046;-41
2022/12/17 20:32:24;;;;;;;10.93;9.20;;;16.30;60.50;;;;;;4971179;28;20093;-42
2022/12/17 20:34:50;;;;;;;10.32;8.90;;;16.30;60.40;;;;;;4973042;28;20525;-38
2022/12/17 20:37:16;;;;;;;13.10;9.50;;;16.30;60.20;;;;;;4974115;28;20042;-42
2022/12/17 20:39:41;;;;;;;10.07;8.68;;;16.30;60.20;;;;;;4968271;28;20587;-40
2022/12/17 20:42:08;;;;;;;10.75;9.48;;;16.40;60.30;;;;;;4974700;28;20046;-40
2022/12/17 20:44:33;;;;;;;9.38;7.80;;;16.30;60.30;;;;;;4972137;28;20193;-40
2022/12/17 20:47:00;;;;;;;10.60;9.05;;;16.30;60.30;;;;;;4974252;28;20262;-40
2022/12/17 20:49:25;;;;;;;9.60;8.00;;;16.30;60.40;;;;;;4975445;28;20057;-40
2022/12/17 20:51:51;;;;;;;8.77;7.85;;;16.30;60.20;;;;;;4977515;28;20446;-42
2022/12/17 20:54:17;;;;;;;8.73;7.82;;;16.30;60.20;;;;;;4975516;28;20083;-40
2022/12/17 20:56:42;;;;;;;10.95;9.18;;;16.30;60.10;;;;;;4976858;28;20061;-42
2022/12/17 20:59:10;;;;;;;10.45;7.95;;;16.30;60.10;;;;;;4971961;28;20411;-41
2022/12/17 21:01:36;;;;;;;9.98;7.70;;;16.30;60.20;;;;;;4976102;28;20046;-40
2022/12/17 21:04:02;;;;;;;10.45;8.45;;;16.30;60.10;;;;;;4967894;28;20101;-40
2022/12/17 21:06:34;;;;;;;7.88;7.15;;;16.40;59.80;;;;;;4973746;28;20145;-40
2022/12/17 21:08:59;;;;;;;9.32;7.85;;;16.30;59.70;;;;;;4972061;28;20053;-41
2022/12/17 21:11:26;;;;;;;7.72;6.88;;;16.20;59.90;;;;;;4975009;28;20055;-44
2022/12/17 21:13:51;;;;;;;7.90;7.10;;;16.20;59.90;;;;;;4978255;28;20059;-42
2022/12/17 21:16:24;;;;;;;8.38;7.35;;;16.10;59.90;;;;;;4976764;28;20097;-41
2022/12/17 21:18:50;;;;;;;7.65;6.95;;;16.10;60.00;;;;;;4979144;28;20662;-43
2022/12/17 21:21:19;;;;;;;8.27;6.82;;;16.00;59.90;;;;;;4977890;28;20609;-44
2022/12/17 21:23:45;;;;;;;7.25;6.55;;;16.00;60.10;;;;;;4980948;28;20042;-40
2022/12/17 21:26:13;;;;;;;6.45;5.80;;;16.00;60.30;;;;;;4976548;28;20177;-42
2022/12/17 21:28:40;;;;;;;11.68;7.05;;;16.00;60.40;;;;;;4975640;28;20736;-44
2022/12/17 21:31:16;;;;;;;7.38;6.68;;;15.90;60.10;;;;;;4980358;28;20137;-40
2022/12/17 21:33:42;;;;;;;7.88;6.47;;;16.00;60.10;;;;;;4978944;28;20609;-40
2022/12/17 21:36:08;;;;;;;7.07;6.43;;;16.00;60.00;;;;;;4975397;28;20137;-42
2022/12/17 21:38:33;;;;;;;7.25;6.50;;;15.90;60.00;;;;;;4978520;28;20050;-42
2022/12/17 21:41:10;;;;;;;7.13;6.43;;;15.90;60.10;;;;;;4984179;28;20093;-40
2022/12/17 21:43:36;;;;;;;7.03;6.15;;;15.90;60.10;;;;;;4980694;28;20094;-41
2022/12/17 21:46:02;;;;;;;6.78;6.18;;;15.90;60.30;;;;;;4984608;28;20530;-41
2022/12/17 21:48:28;;;;;;;7.20;6.53;;;15.90;60.10;;;;;;4989744;28;20108;-42
2022/12/17 21:50:53;;;;;;;6.88;5.90;;;15.90;60.00;;;;;;4989287;28;20125;-42
2022/12/17 21:53:19;;;;;;;6.68;6.07;;;16.30;59.60;;;;;;4990648;28;20076;-41
2022/12/17 21:55:44;;;;;;;9.25;5.85;;;16.20;59.30;;;;;;4990828;28;20049;-41
2022/12/17 21:58:10;;;;;;;6.65;5.88;;;16.10;59.60;;;;;;4989771;28;20060;-41
2022/12/17 22:00:35;;;;;;;6.25;5.60;;;15.90;59.80;;;;;;4989405;28;20045;-40
2022/12/17 22:03:01;;;;;;;6.10;5.50;;;15.90;59.90;;;;;;4995794;28;20081;-41
2022/12/17 22:05:27;;;;;;;6.80;5.95;;;15.90;59.80;;;;;;4993429;28;20046;-42
2022/12/17 22:07:53;;;;;;;7.15;5.88;;;15.80;59.80;;;;;;4997668;28;20088;-41
2022/12/17 22:10:18;;;;;;;6.55;5.95;;;15.80;59.70;;;;;;4990809;28;20101;-42
2022/12/17 22:15:28;;;;;;;6.55;5.97;;;15.80;59.70;;;;;;4994185;28;20061;-41
2022/12/17 22:17:54;;;;;;;5.90;5.35;;;15.80;59.70;;;;;;4994531;28;20035;-41
2022/12/17 22:20:20;;;;;;;7.40;5.78;;;15.80;59.70;;;;;;4987064;28;20046;-41
2022/12/17 22:22:46;;;;;;;6.50;6.00;;;15.80;59.70;;;;;;4993647;28;20525;-42
2022/12/17 22:25:11;;;;;;;5.85;5.35;;;15.70;59.50;;;;;;4986690;28;20066;-42
2022/12/17 22:27:38;;;;;;;5.40;4.97;;;15.80;59.40;;;;;;5004672;28;20555;-42
2022/12/17 22:32:59;;;;;;;5.07;4.72;;;15.70;59.30;;;;;;4992773;28;20168;-46
2022/12/17 22:35:25;;;;;;;5.60;5.20;;;15.80;59.10;;;;;;4993911;28;20054;-42
2022/12/17 22:37:51;;;;;;;5.35;4.95;;;15.70;59.10;;;;;;4992662;28;20059;-44
2022/12/17 22:40:19;;;;;;;6.30;5.80;;;15.70;59.10;;;;;;4984085;28;20087;-44
2022/12/17 22:45:29;;;;;;;5.65;5.05;;;15.60;59.00;;;;;;4989928;28;20166;-44
2022/12/17 22:47:54;;;;;;;5.25;4.85;;;15.60;59.20;;;;;;4992235;28;20054;-43
2022/12/17 22:50:20;;;;;;;5.28;4.88;;;15.60;59.20;;;;;;4985564;28;20066;-44
2022/12/17 22:52:46;;;;;;;5.75;5.25;;;15.60;59.10;;;;;;4997117;28;20042;-40
2022/12/17 22:55:11;;;;;;;5.03;4.72;;;15.70;58.90;;;;;;4994437;28;20065;-40
2022/12/17 22:57:37;;;;;;;5.30;4.80;;;15.70;58.90;;;;;;4986989;28;20038;-40
2022/12/17 23:00:07;;;;;;;4.53;4.22;;;15.60;59.00;;;;;;4989262;28;20093;-42
2022/12/17 23:02:33;;;;;;;5.65;4.63;;;15.50;59.20;;;;;;4986441;28;20054;-43
2022/12/17 23:04:59;;;;;;;5.00;4.60;;;15.50;59.30;;;;;;4992427;28;20038;-40
2022/12/17 23:07:24;;;;;;;5.18;4.78;;;15.50;59.20;;;;;;4995264;28;20142;-41
2022/12/17 23:09:50;;;;;;;5.18;4.75;;;15.50;59.20;;;;;;4991676;28;20049;-42
2022/12/17 23:14:59;;;;;;;5.22;4.75;;;15.60;58.90;;;;;;4986674;28;20803;-42
2022/12/17 23:17:25;;;;;;;4.63;4.32;;;15.70;58.60;;;;;;4992192;28;20043;-44
2022/12/17 23:19:51;;;;;;;4.82;4.43;;;15.70;58.50;;;;;;4991453;28;20046;-44
2022/12/17 23:22:16;;;;;;;4.43;4.13;;;15.60;58.40;;;;;;4993732;28;20049;-42
2022/12/17 23:24:42;;;;;;;4.45;4.15;;;15.60;58.30;;;;;;4989239;28;20500;-41
2022/12/17 23:27:07;;;;;;;4.15;3.80;;;15.60;58.40;;;;;;4990585;28;20081;-41
2022/12/17 23:29:33;;;;;;;4.25;3.97;;;15.60;58.20;;;;;;4992663;28;20124;-44
2022/12/17 23:31:58;;;;;;;4.13;3.80;;;15.60;58.20;;;;;;4982678;28;20046;-46
2022/12/17 23:34:24;;;;;;;4.32;4.03;;;15.60;58.20;;;;;;4992673;28;20101;-41
2022/12/17 23:36:50;;;;;;;4.40;4.10;;;15.50;58.60;;;;;;4989715;28;20060;-38
2022/12/17 23:39:15;;;;;;;4.35;3.97;;;15.60;58.10;;;;;;4986496;28;20050;-42
2022/12/17 23:41:41;;;;;;;3.90;3.67;;;15.60;57.90;;;;;;4984961;28;20034;-42
2022/12/17 23:44:06;;;;;;;5.30;4.90;;;15.70;57.90;;;;;;4993447;28;20046;-42
2022/12/17 23:46:32;;;;;;;4.07;3.88;;;15.60;58.10;;;;;;4987923;28;20054;-41
2022/12/17 23:48:58;;;;;;;3.95;3.65;;;15.60;58.10;;;;;;4984170;28;20054;-41
2022/12/17 23:51:23;;;;;;;5.10;4.70;;;15.60;58.00;;;;;;4986357;28;20108;-41
2022/12/17 23:53:49;;;;;;;4.45;4.15;;;15.60;57.80;;;;;;4987249;28;20058;-43
2022/12/17 23:56:16;;;;;;;4.15;3.95;;;15.60;57.70;;;;;;4987659;28;20113;-42
2022/12/17 23:58:42;;;;;;;3.78;3.47;;;15.60;57.90;;;;;;4985616;28;20046;-44
